createdAt,value
2023-02-28T00:01:23.814Z,1.27
2023-02-28T00:03:25.829Z,1.05
2023-02-28T00:50:07.485Z,1.53
2023-02-28T00:52:09.415Z,1.30
2023-02-28T00:54:11.186Z,1.50
2023-02-28T00:56:17.378Z,2.05
2023-02-28T00:58:19.349Z,1.50
2023-02-28T01:00:21.868Z,1.15
2023-02-28T01:02:24.486Z,1.40
2023-02-28T01:04:26.306Z,1.80
2023-02-28T01:06:28.111Z,1.20
2023-02-28T01:08:29.972Z,1.88
2023-02-28T01:10:32.600Z,1.25
2023-02-28T01:12:34.372Z,1.13
2023-02-28T01:14:36.797Z,1.17
2023-02-28T01:16:38.707Z,1.20
2023-02-28T01:18:40.947Z,1.25
2023-02-28T01:20:42.732Z,0.90
2023-02-28T01:22:44.818Z,1.20
2023-02-28T01:24:48.345Z,1.20
2023-02-28T01:26:50.318Z,1.42
2023-02-28T01:28:53.168Z,1.48
2023-02-28T01:30:55.102Z,1.25
2023-02-28T01:32:57.056Z,1.55
2023-02-28T01:34:58.845Z,1.02
2023-02-28T01:37:00.736Z,1.20
2023-02-28T01:39:02.666Z,0.88
2023-02-28T01:41:05.631Z,1.30
2023-02-28T01:43:20.190Z,1.63
2023-02-28T01:45:26.868Z,1.08
2023-02-28T01:47:34.738Z,1.17
2023-02-28T01:49:36.818Z,1.17
2023-02-28T01:51:46.661Z,1.20
2023-02-28T01:53:54.101Z,1.88
2023-02-28T01:55:56.114Z,1.25
2023-02-28T01:58:03.868Z,1.77
2023-02-28T02:00:10.267Z,1.50
2023-02-28T02:02:12.231Z,1.95
2023-02-28T02:04:14.133Z,1.00
2023-02-28T02:06:16.021Z,1.42
2023-02-28T02:08:22.756Z,1.20
2023-02-28T02:10:30.265Z,1.50
2023-02-28T02:12:48.970Z,2.42
2023-02-28T02:15:06.246Z,1.00
2023-02-28T02:17:21.456Z,1.15
2023-02-28T02:19:29.834Z,0.95
2023-02-28T02:21:48.172Z,1.15
2023-02-28T02:23:56.686Z,2.10
2023-02-28T02:26:03.579Z,1.52
2023-02-28T02:28:13.074Z,1.17
2023-02-28T02:30:18.614Z,1.23
2023-02-28T02:32:25.154Z,1.30
2023-02-28T02:34:30.241Z,1.15
2023-02-28T02:36:39.697Z,1.15
2023-02-28T02:38:46.108Z,1.33
2023-02-28T02:40:52.819Z,1.10
2023-02-28T02:43:02.376Z,1.10
2023-02-28T02:45:14.150Z,1.02
2023-02-28T02:47:19.913Z,1.63
2023-02-28T02:49:29.879Z,1.05
2023-02-28T02:51:34.139Z,1.20
2023-02-28T02:53:39.481Z,1.10
2023-02-28T02:55:47.401Z,1.02
2023-02-28T02:57:55.456Z,1.13
2023-02-28T02:59:58.662Z,0.98
2023-02-28T03:02:07.495Z,0.95
2023-02-28T03:04:14.027Z,1.20
2023-02-28T03:06:16.186Z,1.17
2023-02-28T03:08:18.595Z,1.00
2023-02-28T03:10:26.659Z,1.30
2023-02-28T03:12:42.090Z,0.88
2023-02-28T03:14:50.216Z,1.38
2023-02-28T03:16:56.525Z,1.13
2023-02-28T03:19:05.660Z,1.85
2023-02-28T03:21:12.005Z,1.20
2023-02-28T03:23:17.364Z,0.98
2023-02-28T03:25:25.412Z,0.90
2023-02-28T03:27:30.716Z,1.48
2023-02-28T03:29:43.656Z,1.35
2023-02-28T03:31:51.666Z,1.98
2023-02-28T03:34:02.711Z,1.02
2023-02-28T03:36:11.660Z,1.20
2023-02-28T03:38:19.951Z,1.00
2023-02-28T03:40:26.589Z,1.30
2023-02-28T03:42:32.962Z,1.20
2023-02-28T03:44:40.521Z,0.98
2023-02-28T03:46:50.049Z,1.15
2023-02-28T03:48:59.928Z,0.98
2023-02-28T03:51:04.136Z,0.82
2023-02-28T03:53:10.467Z,1.10
2023-02-28T03:55:15.775Z,1.60
2023-02-28T03:57:21.146Z,1.70
2023-02-28T03:59:30.516Z,0.77
2023-02-28T04:01:39.383Z,1.15
2023-02-28T04:03:41.341Z,1.35
2023-02-28T04:05:50.237Z,1.17
2023-02-28T04:07:52.076Z,1.00
2023-02-28T04:09:53.965Z,1.60
2023-02-28T04:11:57.588Z,1.33
2023-02-28T04:13:59.457Z,1.70
2023-02-28T04:16:01.289Z,1.63
2023-02-28T04:18:05.697Z,2.00
2023-02-28T04:20:10.796Z,1.85
2023-02-28T04:22:12.608Z,1.88
2023-02-28T04:24:17.929Z,1.75
2023-02-28T04:26:19.960Z,1.40
2023-02-28T04:28:26.566Z,2.15
2023-02-28T04:30:28.419Z,1.13
2023-02-28T04:32:32.890Z,1.88
2023-02-28T04:34:34.730Z,2.20
2023-02-28T04:36:36.591Z,1.48
2023-02-28T04:38:39.531Z,2.60
2023-02-28T04:40:41.351Z,1.48
2023-02-28T04:42:43.169Z,1.80
2023-02-28T04:44:45.059Z,1.98
2023-02-28T04:46:49.705Z,2.05
2023-02-28T04:48:51.580Z,3.00
2023-02-28T04:50:53.739Z,1.90
2023-02-28T04:52:55.837Z,2.20
2023-02-28T04:54:57.745Z,2.08
2023-02-28T04:56:59.516Z,2.20
2023-02-28T04:59:01.559Z,1.83
2023-02-28T05:01:13.683Z,2.65
2023-02-28T05:03:15.717Z,2.90
2023-02-28T05:05:19.258Z,2.08
2023-02-28T05:07:21.016Z,2.00
2023-02-28T05:09:22.868Z,1.65
2023-02-28T05:11:30.458Z,2.03
2023-02-28T05:13:32.663Z,2.10
2023-02-28T05:15:35.729Z,2.55
2023-02-28T05:17:37.641Z,3.17
2023-02-28T05:19:39.822Z,2.03
2023-02-28T05:21:51.713Z,1.52
2023-02-28T05:23:54.444Z,2.40
2023-02-28T05:25:56.826Z,2.22
2023-02-28T05:27:58.759Z,2.17
2023-02-28T05:30:00.657Z,2.42
2023-02-28T05:32:02.704Z,2.13
2023-02-28T05:34:05.659Z,1.98
2023-02-28T05:36:08.280Z,2.10
2023-02-28T05:38:12.760Z,2.55
2023-02-28T05:40:14.794Z,2.55
2023-02-28T05:42:16.679Z,2.30
2023-02-28T05:44:18.515Z,3.17
2023-02-28T05:46:20.610Z,1.77
2023-02-28T05:48:22.535Z,2.83
2023-02-28T05:50:24.350Z,2.35
2023-02-28T05:52:26.264Z,1.92
2023-02-28T05:54:28.036Z,1.75
2023-02-28T05:56:30.207Z,2.78
2023-02-28T05:58:33.009Z,2.58
2023-02-28T06:00:34.910Z,2.30
2023-02-28T06:02:41.082Z,2.25
2023-02-28T06:04:43.953Z,2.65
2023-02-28T06:06:48.870Z,2.10
2023-02-28T06:08:50.839Z,2.38
2023-02-28T06:10:52.859Z,1.98
2023-02-28T06:12:55.167Z,1.98
2023-02-28T06:14:57.244Z,2.35
2023-02-28T06:17:00.251Z,2.33
2023-02-28T06:19:05.083Z,2.72
2023-02-28T06:21:07.079Z,2.17
2023-02-28T06:23:09.061Z,2.85
2023-02-28T06:25:11.882Z,1.80
2023-02-28T06:27:13.876Z,2.60
2023-02-28T06:29:18.127Z,2.55
2023-02-28T06:31:20.601Z,2.40
2023-02-28T06:33:22.765Z,2.30
2023-02-28T06:35:24.802Z,2.25
2023-02-28T06:37:27.314Z,2.55
2023-02-28T06:39:30.503Z,2.38
2023-02-28T06:41:44.524Z,2.35
2023-02-28T06:43:54.359Z,2.88
2023-02-28T06:45:57.798Z,2.15
2023-02-28T06:48:01.264Z,2.22
2023-02-28T06:50:03.885Z,1.90
2023-02-28T06:52:08.162Z,2.67
2023-02-28T06:54:10.039Z,2.58
2023-02-28T06:56:15.013Z,2.22
2023-02-28T06:58:19.013Z,2.33
2023-02-28T07:00:22.278Z,2.53
2023-02-28T07:02:24.190Z,2.40
2023-02-28T07:04:26.716Z,2.35
2023-02-28T07:06:29.054Z,2.05
2023-02-28T07:08:33.887Z,2.33
2023-02-28T07:10:38.113Z,2.25
2023-02-28T07:12:40.032Z,2.20
2023-02-28T07:14:42.114Z,2.15
2023-02-28T07:16:44.794Z,2.60
2023-02-28T07:18:46.890Z,2.40
2023-02-28T07:20:48.838Z,2.22
2023-02-28T07:22:57.424Z,2.83
2023-02-28T07:24:59.245Z,2.15
2023-02-28T07:27:02.096Z,2.35
2023-02-28T07:29:04.171Z,3.05
2023-02-28T07:31:07.087Z,2.22
2023-02-28T07:33:10.042Z,2.55
2023-02-28T07:35:14.265Z,2.70
2023-02-28T07:37:16.330Z,2.95
2023-02-28T07:39:18.425Z,2.35
2023-02-28T07:41:25.803Z,2.60
2023-02-28T07:43:27.835Z,2.33
2023-02-28T07:45:30.243Z,2.40
2023-02-28T07:47:32.851Z,2.35
2023-02-28T07:49:36.792Z,3.10
2023-02-28T07:51:38.832Z,2.22
2023-02-28T07:53:42.227Z,2.55
2023-02-28T07:55:44.406Z,2.40
2023-02-28T07:57:48.914Z,3.17
2023-02-28T07:59:51.433Z,2.55
2023-02-28T08:01:53.865Z,3.10
2023-02-28T08:03:58.163Z,3.10
2023-02-28T08:06:00.400Z,3.22
2023-02-28T08:08:02.466Z,2.25
2023-02-28T08:10:06.892Z,2.90
2023-02-28T08:12:10.659Z,2.28
2023-02-28T08:14:15.445Z,2.88
2023-02-28T08:16:23.153Z,2.90
2023-02-28T08:18:25.894Z,2.53
2023-02-28T08:20:32.169Z,2.60
2023-02-28T08:22:34.339Z,2.10
2023-02-28T08:24:36.873Z,2.80
2023-02-28T08:26:39.162Z,2.30
2023-02-28T08:28:41.359Z,2.03
2023-02-28T08:30:43.352Z,2.22
2023-02-28T08:32:45.750Z,2.42
2023-02-28T08:34:48.728Z,2.40
2023-02-28T08:36:51.120Z,2.42
2023-02-28T08:38:54.001Z,2.13
2023-02-28T08:41:00.736Z,1.55
2023-02-28T08:43:05.712Z,1.48
2023-02-28T08:45:08.652Z,1.90
2023-02-28T08:47:10.797Z,1.30
2023-02-28T08:49:15.686Z,1.30
2023-02-28T08:51:22.603Z,1.20
2023-02-28T08:53:25.669Z,1.13
2023-02-28T08:55:28.228Z,1.20
2023-02-28T08:57:30.276Z,1.40
2023-02-28T08:59:32.641Z,1.63
2023-02-28T09:01:34.762Z,1.08
2023-02-28T09:03:37.838Z,1.10
2023-02-28T09:05:39.925Z,1.50
2023-02-28T09:07:46.626Z,1.30
2023-02-28T09:09:52.875Z,1.70
2023-02-28T09:11:57.820Z,1.13
2023-02-28T09:14:01.434Z,1.77
2023-02-28T09:16:05.930Z,1.17
2023-02-28T09:18:08.316Z,1.45
2023-02-28T09:20:12.196Z,1.33
2023-02-28T09:22:14.637Z,1.30
2023-02-28T09:24:16.947Z,1.23
2023-02-28T09:26:23.803Z,1.30
2023-02-28T09:28:26.329Z,1.92
2023-02-28T09:30:37.015Z,1.10
2023-02-28T09:34:42.625Z,1.00
2023-02-28T09:36:47.908Z,0.90
2023-02-28T09:38:52.957Z,0.75
2023-02-28T09:41:02.551Z,1.00
2023-02-28T09:43:06.863Z,0.90
2023-02-28T09:45:18.849Z,0.90
2023-02-28T09:47:27.499Z,1.02
2023-02-28T09:49:39.213Z,1.50
2023-02-28T09:51:50.384Z,0.80
2023-02-28T09:53:56.747Z,0.70
2023-02-28T09:56:08.689Z,0.80
2023-02-28T09:58:21.109Z,0.52
2023-02-28T10:00:44.215Z,0.57
2023-02-28T10:02:52.881Z,0.50
2023-02-28T10:04:58.803Z,0.60
2023-02-28T10:07:06.704Z,0.60
2023-02-28T10:09:17.290Z,0.55
2023-02-28T10:11:23.896Z,0.70
2023-02-28T10:13:28.785Z,0.65
2023-02-28T10:15:34.582Z,0.45
2023-02-28T10:17:54.902Z,0.60
2023-02-28T10:20:12.896Z,0.73
2023-02-28T10:22:23.594Z,0.65
2023-02-28T10:24:32.003Z,0.85
2023-02-28T10:26:34.446Z,0.55
2023-02-28T10:28:39.349Z,0.80
2023-02-28T10:31:00.217Z,0.82
2023-02-28T10:35:17.030Z,1.20
2023-02-28T10:37:21.506Z,0.77
2023-02-28T10:39:30.231Z,0.68
2023-02-28T10:41:36.076Z,0.82
2023-02-28T10:43:43.257Z,0.90
2023-02-28T10:46:01.958Z,0.73
2023-02-28T10:48:08.749Z,0.98
2023-02-28T10:50:23.067Z,0.63
2023-02-28T10:52:31.526Z,0.82
2023-02-28T10:54:36.760Z,0.77
2023-02-28T10:56:38.921Z,0.93
2023-02-28T10:58:47.211Z,0.60
2023-02-28T11:00:50.387Z,1.17
2023-02-28T11:02:52.913Z,0.70
2023-02-28T11:04:57.366Z,0.68
2023-02-28T11:07:05.073Z,0.60
2023-02-28T11:09:24.637Z,0.73
2023-02-28T11:11:33.872Z,0.90
2023-02-28T11:13:39.611Z,0.65
2023-02-28T11:15:41.817Z,0.80
2023-02-28T11:17:54.632Z,0.82
2023-02-28T11:20:04.329Z,1.17
2023-02-28T11:22:09.971Z,1.17
2023-02-28T11:24:18.156Z,0.77
2023-02-28T11:26:40.674Z,0.80
2023-02-28T11:28:44.263Z,0.68
2023-02-28T11:30:48.233Z,0.80
2023-02-28T11:32:50.817Z,0.80
2023-02-28T11:34:59.038Z,0.75
2023-02-28T11:37:06.753Z,0.60
2023-02-28T11:39:13.909Z,0.82
2023-02-28T11:41:17.908Z,0.80
2023-02-28T11:43:37.388Z,1.02
2023-02-28T11:45:44.043Z,0.77
2023-02-28T11:47:49.798Z,1.20
2023-02-28T11:50:02.201Z,0.82
2023-02-28T11:52:09.780Z,1.05
2023-02-28T11:54:18.275Z,1.17
2023-02-28T11:56:26.978Z,1.08
2023-02-28T11:58:34.328Z,1.10
2023-02-28T12:00:40.244Z,1.33
2023-02-28T12:02:46.620Z,1.33
2023-02-28T12:04:52.553Z,1.00
2023-02-28T12:07:00.827Z,1.00
2023-02-28T12:09:09.522Z,0.90
2023-02-28T12:11:16.459Z,1.13
2023-02-28T12:13:25.289Z,1.30
2023-02-28T12:15:30.486Z,1.23
2023-02-28T12:17:46.105Z,1.00
2023-02-28T12:19:52.091Z,1.23
2023-02-28T12:21:55.115Z,1.05
2023-02-28T12:24:06.470Z,1.10
2023-02-28T12:26:19.280Z,1.20
2023-02-28T12:28:26.790Z,1.10
2023-02-28T12:31:02.783Z,1.30
2023-02-28T12:33:10.078Z,1.40
2023-02-28T12:35:18.250Z,1.50
2023-02-28T12:37:26.620Z,1.00
2023-02-28T12:39:39.076Z,1.00
2023-02-28T12:41:58.047Z,1.38
2023-02-28T12:44:06.306Z,1.17
2023-02-28T12:46:16.653Z,1.55
2023-02-28T12:48:35.040Z,1.00
2023-02-28T12:50:38.387Z,1.10
2023-02-28T12:52:54.680Z,1.08
2023-02-28T12:55:06.156Z,1.33
2023-02-28T12:57:11.990Z,1.45
2023-02-28T12:59:24.535Z,1.15
2023-02-28T13:01:34.488Z,1.10
2023-02-28T13:03:42.956Z,0.90
2023-02-28T13:05:50.049Z,1.38
2023-02-28T13:07:58.394Z,0.88
2023-02-28T13:10:04.063Z,1.08
2023-02-28T13:12:16.558Z,1.13
2023-02-28T13:14:25.169Z,1.25
2023-02-28T13:16:27.875Z,1.13
2023-02-28T13:18:34.939Z,1.00
2023-02-28T13:20:49.580Z,1.20
2023-02-28T13:22:55.968Z,1.00
2023-02-28T13:24:58.640Z,1.63
2023-02-28T13:27:02.878Z,1.02
2023-02-28T13:29:11.602Z,1.08
2023-02-28T13:31:14.443Z,0.90
2023-02-28T13:33:21.652Z,1.00
2023-02-28T13:35:30.192Z,1.08
2023-02-28T13:37:36.814Z,1.00
2023-02-28T13:39:39.928Z,0.70
2023-02-28T13:41:43.673Z,0.90
2023-02-28T13:43:52.198Z,0.60
2023-02-28T13:46:06.478Z,0.80
2023-02-28T13:48:21.917Z,0.85
2023-02-28T13:50:34.769Z,0.65
2023-02-28T13:52:52.794Z,0.75
2023-02-28T13:55:02.124Z,0.50
2023-02-28T13:57:07.890Z,0.52
2023-02-28T13:59:17.819Z,0.50
2023-02-28T14:01:29.937Z,0.50
2023-02-28T14:03:52.299Z,0.60
2023-02-28T14:06:01.154Z,0.63
2023-02-28T14:08:15.168Z,0.60
2023-02-28T14:10:26.405Z,0.75
2023-02-28T14:12:34.906Z,0.60
2023-02-28T14:14:38.150Z,0.80
2023-02-28T14:16:41.319Z,0.50
2023-02-28T14:18:51.711Z,0.50
2023-02-28T14:20:59.427Z,0.75
2023-02-28T14:23:12.204Z,0.47
2023-02-28T14:25:23.073Z,0.68
2023-02-28T14:29:39.318Z,0.70
2023-02-28T14:31:55.496Z,0.40
2023-02-28T14:34:05.768Z,0.82
2023-02-28T14:36:13.481Z,0.50
2023-02-28T14:38:22.531Z,0.57
2023-02-28T14:40:28.331Z,0.70
2023-02-28T14:42:34.207Z,0.70
2023-02-28T14:44:38.082Z,0.43
2023-02-28T14:46:42.873Z,0.50
2023-02-28T14:48:48.332Z,0.60
2023-02-28T14:50:54.443Z,0.65
2023-02-28T14:53:00.031Z,0.60
2023-02-28T14:55:07.034Z,0.50
2023-02-28T14:57:23.619Z,0.60
2023-02-28T14:59:30.598Z,0.85
2023-02-28T15:01:34.800Z,0.50
2023-02-28T15:03:39.843Z,0.70
2023-02-28T15:05:41.987Z,0.60
2023-02-28T15:07:44.952Z,0.90
2023-02-28T15:09:47.042Z,0.75
2023-02-28T15:11:51.707Z,0.60
2023-02-28T15:13:57.914Z,0.60
2023-02-28T15:16:04.997Z,0.60
2023-02-28T15:18:08.952Z,0.70
2023-02-28T15:20:18.983Z,0.40
2023-02-28T15:22:30.198Z,0.70
2023-02-28T15:24:37.241Z,0.65
2023-02-28T15:26:43.779Z,0.82
2023-02-28T15:28:50.228Z,0.50
2023-02-28T15:30:58.109Z,0.55
2023-02-28T15:33:05.563Z,0.60
2023-02-28T15:35:14.049Z,0.50
2023-02-28T15:37:22.508Z,0.60
2023-02-28T15:39:29.214Z,0.50
2023-02-28T15:41:41.373Z,0.75
2023-02-28T15:43:43.548Z,0.60
2023-02-28T15:45:47.769Z,0.32
2023-02-28T15:47:53.615Z,0.43
2023-02-28T15:50:01.745Z,0.65
2023-02-28T15:52:04.352Z,1.13
2023-02-28T15:54:09.159Z,0.60
2023-02-28T15:56:23.212Z,0.60
2023-02-28T15:58:26.742Z,0.50
2023-02-28T16:00:38.544Z,0.57
2023-02-28T16:02:41.767Z,0.70
2023-02-28T16:04:54.881Z,0.77
2023-02-28T16:07:00.714Z,0.60
2023-02-28T16:09:04.288Z,0.40
2023-02-28T16:11:06.421Z,0.63
2023-02-28T16:13:15.309Z,0.60
2023-02-28T16:15:21.202Z,0.47
2023-02-28T16:17:28.288Z,0.82
2023-02-28T16:19:30.612Z,0.60
2023-02-28T16:21:32.986Z,0.60
2023-02-28T16:23:35.129Z,0.70
2023-02-28T16:25:43.303Z,0.80
2023-02-28T16:27:51.209Z,0.60
2023-02-28T16:29:54.983Z,0.40
2023-02-28T16:31:57.521Z,0.50
2023-02-28T16:33:59.876Z,0.70
2023-02-28T16:36:02.615Z,0.22
2023-02-28T16:38:04.968Z,0.43
2023-02-28T16:40:09.476Z,0.50
2023-02-28T16:42:22.878Z,0.40
2023-02-28T16:44:30.590Z,0.52
2023-02-28T16:46:36.992Z,0.60
2023-02-28T16:48:39.185Z,0.50
2023-02-28T16:50:41.609Z,0.50
2023-02-28T16:52:44.976Z,0.68
2023-02-28T16:54:49.770Z,0.40
2023-02-28T16:56:52.168Z,0.40
2023-02-28T16:59:01.193Z,0.77
2023-02-28T17:01:04.354Z,0.50
2023-02-28T17:03:08.618Z,0.50
2023-02-28T17:05:15.320Z,0.77
2023-02-28T17:07:18.331Z,0.80
2023-02-28T17:09:39.972Z,0.50
2023-02-28T17:11:44.082Z,1.00
2023-02-28T17:13:49.196Z,0.70
2023-02-28T17:15:52.044Z,0.82
2023-02-28T17:17:54.661Z,0.40
2023-02-28T17:19:57.113Z,0.73
2023-02-28T17:22:00.406Z,0.60
2023-02-28T17:24:02.574Z,0.95
2023-02-28T17:26:07.696Z,0.98
2023-02-28T17:28:10.577Z,1.05
2023-02-28T17:30:18.412Z,1.13
2023-02-28T17:32:20.701Z,1.15
2023-02-28T17:34:23.526Z,0.82
2023-02-28T17:36:28.173Z,0.77
2023-02-28T17:38:31.392Z,0.65
2023-02-28T17:40:35.198Z,0.98
2023-02-28T17:42:37.314Z,1.00
2023-02-28T17:44:39.611Z,0.90
2023-02-28T17:46:46.306Z,1.23
2023-02-28T17:48:49.457Z,1.00
2023-02-28T17:50:51.660Z,1.13
2023-02-28T17:52:54.005Z,1.05
2023-02-28T17:54:56.612Z,0.90
2023-02-28T17:56:58.954Z,1.00
2023-02-28T17:59:01.617Z,0.80
2023-02-28T18:01:06.391Z,0.73
2023-02-28T18:03:09.527Z,1.00
2023-02-28T18:05:12.543Z,1.08
2023-02-28T18:07:14.736Z,0.90
2023-02-28T18:09:19.856Z,1.35
2023-02-28T18:11:23.350Z,1.15
2023-02-28T18:13:25.982Z,1.17
2023-02-28T18:15:28.369Z,1.10
2023-02-28T18:17:30.935Z,1.05
2023-02-28T18:19:36.766Z,0.75
2023-02-28T18:21:39.875Z,0.82
2023-02-28T18:23:48.234Z,0.80
2023-02-28T18:25:50.718Z,0.80
2023-02-28T18:27:54.590Z,1.17
2023-02-28T18:29:57.065Z,0.90
2023-02-28T18:31:59.938Z,0.65
2023-02-28T18:34:02.018Z,0.80
2023-02-28T18:36:04.745Z,0.55
2023-02-28T18:38:10.546Z,0.90
2023-02-28T18:40:26.839Z,0.60
2023-02-28T18:42:29.277Z,0.93
2023-02-28T18:44:31.440Z,0.70
2023-02-28T18:46:34.105Z,0.80
2023-02-28T18:48:36.985Z,0.70
2023-02-28T18:50:39.353Z,0.73
2023-02-28T18:52:41.622Z,0.98
2023-02-28T18:54:43.661Z,1.08
2023-02-28T18:56:46.052Z,1.13
2023-02-28T18:58:48.152Z,1.30
2023-02-28T19:00:50.443Z,1.45
2023-02-28T19:02:53.292Z,1.27
2023-02-28T19:04:58.349Z,0.93
2023-02-28T19:07:00.312Z,1.13
2023-02-28T19:09:04.181Z,0.90
2023-02-28T19:11:10.608Z,1.13
2023-02-28T19:13:12.722Z,1.27
2023-02-28T19:15:14.915Z,1.40
2023-02-28T19:17:16.989Z,1.25
2023-02-28T19:19:19.058Z,1.45
2023-02-28T19:21:23.359Z,1.63
2023-02-28T19:23:26.674Z,0.70
2023-02-28T19:25:29.145Z,0.90
2023-02-28T19:27:31.301Z,0.98
2023-02-28T19:29:33.500Z,0.70
2023-02-28T19:31:35.685Z,0.80
2023-02-28T19:33:38.658Z,1.00
2023-02-28T19:35:41.619Z,1.00
2023-02-28T19:37:43.680Z,0.98
2023-02-28T19:39:48.223Z,1.30
2023-02-28T19:41:50.403Z,1.00
2023-02-28T19:43:54.782Z,1.15
2023-02-28T19:46:00.116Z,1.00
2023-02-28T19:48:03.761Z,1.10
2023-02-28T19:50:08.060Z,1.02
2023-02-28T19:52:13.559Z,1.02
2023-02-28T19:54:18.520Z,1.15
2023-02-28T19:56:23.697Z,1.55
2023-02-28T19:58:30.980Z,1.10
2023-02-28T20:00:35.034Z,1.40
2023-02-28T20:02:38.690Z,1.33
2023-02-28T20:04:41.925Z,1.30
2023-02-28T20:06:46.090Z,1.35
2023-02-28T20:08:55.559Z,1.73
2023-02-28T20:11:04.230Z,1.83
2023-02-28T20:13:08.596Z,1.58
2023-02-28T20:15:11.083Z,1.73
2023-02-28T20:17:13.234Z,2.00
2023-02-28T20:19:15.442Z,1.50
2023-02-28T20:21:18.473Z,1.42
2023-02-28T20:23:23.422Z,2.33
2023-02-28T20:25:25.661Z,1.75
2023-02-28T20:27:27.889Z,1.70
2023-02-28T20:29:30.559Z,1.85
2023-02-28T20:31:33.073Z,1.20
2023-02-28T20:33:35.548Z,1.60
2023-02-28T20:35:38.295Z,1.80
2023-02-28T20:37:40.501Z,2.20
2023-02-28T20:39:42.734Z,2.75
2023-02-28T20:41:47.490Z,2.53
2023-02-28T20:43:55.812Z,2.20
2023-02-28T20:46:01.980Z,1.20
2023-02-28T20:48:04.187Z,1.40
2023-02-28T20:50:07.314Z,1.95
2023-02-28T20:52:11.753Z,1.30
2023-02-28T20:54:14.222Z,1.13
2023-02-28T20:56:19.605Z,1.08
2023-02-28T20:58:22.709Z,1.38
2023-02-28T21:00:28.946Z,1.40
2023-02-28T21:02:31.372Z,0.95
2023-02-28T21:04:33.571Z,1.58
2023-02-28T21:06:39.696Z,1.58
2023-02-28T21:08:43.324Z,1.15
2023-02-28T21:10:45.609Z,1.20
2023-02-28T21:12:53.787Z,1.23
2023-02-28T21:14:55.846Z,1.02
2023-02-28T21:16:58.398Z,1.13
2023-02-28T21:19:04.309Z,1.42
2023-02-28T21:21:11.060Z,1.30
2023-02-28T21:23:13.107Z,1.08
2023-02-28T21:25:15.599Z,1.35
2023-02-28T21:27:17.759Z,0.95
2023-02-28T21:29:21.111Z,1.15
2023-02-28T21:31:25.010Z,1.25
2023-02-28T21:33:27.174Z,1.08
2023-02-28T21:35:29.284Z,1.27
2023-02-28T21:37:31.665Z,1.50
2023-02-28T21:39:33.642Z,1.45
2023-02-28T21:41:36.942Z,1.23
2023-02-28T21:43:40.052Z,1.42
2023-02-28T21:45:43.118Z,1.30
2023-02-28T21:47:45.736Z,1.65
2023-02-28T21:49:48.227Z,1.38
2023-02-28T21:51:50.567Z,1.38
2023-02-28T21:53:52.949Z,1.40
2023-02-28T21:55:55.116Z,1.25
2023-02-28T21:57:59.922Z,1.52
2023-02-28T22:00:05.598Z,2.10
2023-02-28T22:02:10.947Z,1.27
2023-02-28T22:04:21.585Z,1.48
2023-02-28T22:08:27.694Z,1.60
2023-02-28T22:10:31.787Z,1.60
2023-02-28T22:12:33.942Z,1.80
2023-02-28T22:14:36.181Z,1.77
2023-02-28T22:16:50.664Z,2.08
2023-02-28T22:18:55.536Z,2.08
2023-02-28T22:20:57.748Z,1.50
2023-02-28T22:23:00.127Z,2.00
2023-02-28T22:25:02.417Z,1.48
2023-02-28T22:27:04.634Z,1.92
2023-02-28T22:29:06.716Z,2.10
2023-02-28T22:31:14.098Z,2.25
2023-02-28T22:33:19.361Z,1.90
2023-02-28T22:35:21.413Z,1.50
2023-02-28T22:37:23.459Z,1.92
2023-02-28T22:39:25.910Z,1.67
2023-02-28T22:41:29.075Z,1.60
2023-02-28T22:43:31.850Z,2.00
2023-02-28T22:45:37.740Z,1.73
2023-02-28T22:47:41.800Z,1.50
2023-02-28T22:49:44.161Z,1.83
2023-02-28T22:51:46.282Z,1.70
2023-02-28T22:53:49.762Z,1.80
2023-02-28T22:55:56.383Z,1.77
2023-02-28T22:57:58.304Z,1.60
2023-02-28T23:00:00.332Z,1.40
2023-02-28T23:02:02.406Z,1.52
2023-02-28T23:04:04.941Z,1.55
2023-02-28T23:06:14.084Z,1.67
2023-02-28T23:08:16.174Z,1.90
2023-02-28T23:10:21.032Z,1.50
2023-02-28T23:12:23.030Z,1.70
2023-02-28T23:14:25.117Z,1.50
2023-02-28T23:16:29.685Z,1.60
2023-02-28T23:18:36.938Z,1.95
2023-02-28T23:20:39.067Z,1.90
2023-02-28T23:22:41.047Z,1.50
2023-02-28T23:24:43.065Z,1.67
2023-02-28T23:26:47.955Z,1.95
2023-02-28T23:28:50.277Z,1.60
2023-02-28T23:30:53.016Z,1.95
2023-02-28T23:32:55.450Z,1.40
2023-02-28T23:34:57.608Z,1.80
2023-02-28T23:37:01.713Z,1.60
2023-02-28T23:39:04.339Z,1.98
2023-02-28T23:41:08.469Z,2.22
2023-02-28T23:43:10.577Z,1.63
2023-02-28T23:45:12.794Z,1.70
2023-02-28T23:47:14.800Z,1.50
2023-02-28T23:49:21.364Z,1.30
2023-02-28T23:51:23.389Z,1.95
2023-02-28T23:53:25.200Z,1.83
2023-02-28T23:55:30.858Z,1.95
2023-02-28T23:57:35.190Z,1.70
2023-02-28T23:59:37.418Z,1.60
